sensor_id;sensor_type;location;lat;lon;timestamp;temperature;humidity
10441;DHT22;5268;49.346;9.522;2024-01-07T04:05:52;4.30;99.90
10441;DHT22;5268;49.346;9.522;2024-01-07T04:10:53;4.40;99.90
10441;DHT22;5268;49.346;9.522;2024-01-07T04:15:55;4.40;99.90
10441;DHT22;5268;49.346;9.522;2024-01-07T04:20:59;4.50;99.90
10441;DHT22;5268;49.346;9.522;2024-01-07T04:26:01;4.60;99.90
10441;DHT22;5268;49.346;9.522;2024-01-07T04:31:03;4.70;99.90
10441;DHT22;5268;49.346;9.522;2024-01-07T04:36:07;4.80;99.90
10441;DHT22;5268;49.346;9.522;2024-01-07T04:41:10;4.80;99.90
10441;DHT22;5268;49.346;9.522;2024-01-07T04:46:12;4.80;99.90
10441;DHT22;5268;49.346;9.522;2024-01-07T04:51:15;4.90;99.90
10441;DHT22;5268;49.346;9.522;2024-01-07T04:56:17;4.90;99.90
10441;DHT22;5268;49.346;9.522;2024-01-07T05:01:19;4.90;99.90
10441;DHT22;5268;49.346;9.522;2024-01-07T05:06:23;5.00;99.90
10441;DHT22;5268;49.346;9.522;2024-01-07T05:11:25;5.00;99.90
10441;DHT22;5268;49.346;9.522;2024-01-07T05:16:27;5.00;99.90
10441;DHT22;5268;49.346;9.522;2024-01-07T05:21:31;5.00;99.90
10441;DHT22;5268;49.346;9.522;2024-01-07T05:26:38;5.00;99.90
10441;DHT22;5268;49.346;9.522;2024-01-07T05:31:41;5.00;99.90
10441;DHT22;5268;49.346;9.522;2024-01-07T05:36:44;5.00;99.90
10441;DHT22;5268;49.346;9.522;2024-01-07T05:41:46;5.00;99.90
10441;DHT22;5268;49.346;9.522;2024-01-07T05:46:48;5.00;99.90
10441;DHT22;5268;49.346;9.522;2024-01-07T05:51:51;5.00;99.90
10441;DHT22;5268;49.346;9.522;2024-01-07T05:56:53;4.90;99.90
10441;DHT22;5268;49.346;9.522;2024-01-07T06:01:58;5.00;99.90
10441;DHT22;5268;49.346;9.522;2024-01-07T06:07:02;4.90;99.90
10441;DHT22;5268;49.346;9.522;2024-01-07T06:12:05;4.80;99.90
10441;DHT22;5268;49.346;9.522;2024-01-07T06:17:07;4.80;99.90
10441;DHT22;5268;49.346;9.522;2024-01-07T06:22:10;4.70;99.90
10441;DHT22;5268;49.346;9.522;2024-01-07T06:27:12;4.70;99.90
10441;DHT22;5268;49.346;9.522;2024-01-07T06:32:14;4.60;99.90
10441;DHT22;5268;49.346;9.522;2024-01-07T06:37:17;4.60;99.90
10441;DHT22;5268;49.346;9.522;2024-01-07T06:42:19;4.60;99.90
10441;DHT22;5268;49.346;9.522;2024-01-07T06:47:21;4.60;99.90
10441;DHT22;5268;49.346;9.522;2024-01-07T06:52:25;4.60;99.90
10441;DHT22;5268;49.346;9.522;2024-01-07T06:57:27;4.60;99.90
10441;DHT22;5268;49.346;9.522;2024-01-07T07:02:29;4.60;99.90
10441;DHT22;5268;49.346;9.522;2024-01-07T07:07:33;4.60;99.90
10441;DHT22;5268;49.346;9.522;2024-01-07T07:12:35;4.50;99.90
10441;DHT22;5268;49.346;9.522;2024-01-07T07:17:37;4.50;99.90
10441;DHT22;5268;49.346;9.522;2024-01-07T07:22:41;4.50;99.90
10441;DHT22;5268;49.346;9.522;2024-01-07T07:27:42;4.50;99.90
10441;DHT22;5268;49.346;9.522;2024-01-07T07:32:45;4.50;99.90
10441;DHT22;5268;49.346;9.522;2024-01-07T07:37:48;4.50;99.90
10441;DHT22;5268;49.346;9.522;2024-01-07T07:42:51;4.40;99.90
10441;DHT22;5268;49.346;9.522;2024-01-07T07:47:53;4.40;99.90
10441;DHT22;5268;49.346;9.522;2024-01-07T07:52:56;4.40;99.90
10441;DHT22;5268;49.346;9.522;2024-01-07T07:57:58;4.40;99.90
10441;DHT22;5268;49.346;9.522;2024-01-07T08:03:00;4.40;99.90
10441;DHT22;5268;49.346;9.522;2024-01-07T08:08:04;4.30;99.90
10441;DHT22;5268;49.346;9.522;2024-01-07T08:13:06;4.30;99.90
10441;DHT22;5268;49.346;9.522;2024-01-07T08:18:09;4.30;99.90
10441;DHT22;5268;49.346;9.522;2024-01-07T08:23:12;4.20;99.90
10441;DHT22;5268;49.346;9.522;2024-01-07T08:28:14;4.10;99.90
10441;DHT22;5268;49.346;9.522;2024-01-07T08:33:16;4.10;99.90
10441;DHT22;5268;49.346;9.522;2024-01-07T08:38:20;4.00;99.90
10441;DHT22;5268;49.346;9.522;2024-01-07T08:43:22;4.00;99.90
10441;DHT22;5268;49.346;9.522;2024-01-07T08:48:24;4.00;99.90
10441;DHT22;5268;49.346;9.522;2024-01-07T08:53:28;3.90;99.90
10441;DHT22;5268;49.346;9.522;2024-01-07T08:58:30;3.90;99.90
10441;DHT22;5268;49.346;9.522;2024-01-07T09:03:32;4.00;99.90
10441;DHT22;5268;49.346;9.522;2024-01-07T09:08:35;4.00;99.90
10441;DHT22;5268;49.346;9.522;2024-01-07T09:13:37;4.10;99.90
10441;DHT22;5268;49.346;9.522;2024-01-07T09:18:39;4.20;99.90
10441;DHT22;5268;49.346;9.522;2024-01-07T09:23:44;4.40;99.90
10441;DHT22;5268;49.346;9.522;2024-01-07T09:28:46;4.50;99.90
10441;DHT22;5268;49.346;9.522;2024-01-07T09:33:48;4.40;99.90
10441;DHT22;5268;49.346;9.522;2024-01-07T09:38:51;4.40;99.90
10441;DHT22;5268;49.346;9.522;2024-01-07T09:43:54;4.30;99.90
10441;DHT22;5268;49.346;9.522;2024-01-07T09:48:58;4.10;99.90
10441;DHT22;5268;49.346;9.522;2024-01-07T09:54:02;4.00;99.90
10441;DHT22;5268;49.346;9.522;2024-01-07T09:59:05;3.90;99.90
10441;DHT22;5268;49.346;9.522;2024-01-07T10:04:08;3.80;99.90
10441;DHT22;5268;49.346;9.522;2024-01-07T10:09:13;3.90;99.90
10441;DHT22;5268;49.346;9.522;2024-01-07T10:14:15;3.90;99.90
10441;DHT22;5268;49.346;9.522;2024-01-07T10:19:21;3.90;99.90
10441;DHT22;5268;49.346;9.522;2024-01-07T10:24:25;3.90;99.90
10441;DHT22;5268;49.346;9.522;2024-01-07T10:29:27;3.90;99.90
10441;DHT22;5268;49.346;9.522;2024-01-07T10:34:31;3.90;99.90
10441;DHT22;5268;49.346;9.522;2024-01-07T10:39:34;3.80;99.90
10441;DHT22;5268;49.346;9.522;2024-01-07T10:44:38;3.80;99.90
10441;DHT22;5268;49.346;9.522;2024-01-07T10:49:44;3.70;99.90
10441;DHT22;5268;49.346;9.522;2024-01-07T10:54:47;3.80;99.90
10441;DHT22;5268;49.346;9.522;2024-01-07T10:59:50;3.70;99.90
10441;DHT22;5268;49.346;9.522;2024-01-07T11:05:00;3.70;99.90
10441;DHT22;5268;49.346;9.522;2024-01-07T11:10:10;3.60;99.90
10441;DHT22;5268;49.346;9.522;2024-01-07T11:15:51;3.60;99.90
10441;DHT22;5268;49.346;9.522;2024-01-07T11:20:53;3.60;99.90
10441;DHT22;5268;49.346;9.522;2024-01-07T11:25:58;3.60;99.90
10441;DHT22;5268;49.346;9.522;2024-01-07T11:31:00;3.50;99.90
10441;DHT22;5268;49.346;9.522;2024-01-07T11:36:04;3.40;99.90
10441;DHT22;5268;49.346;9.522;2024-01-07T11:41:09;3.40;99.90
10441;DHT22;5268;49.346;9.522;2024-01-07T11:46:12;3.30;99.90
10441;DHT22;5268;49.346;9.522;2024-01-07T11:51:14;3.30;99.90
10441;DHT22;5268;49.346;9.522;2024-01-07T11:56:18;3.20;99.90
10441;DHT22;5268;49.346;9.522;2024-01-07T12:01:20;3.20;99.90
10441;DHT22;5268;49.346;9.522;2024-01-07T12:06:22;3.20;99.90
10441;DHT22;5268;49.346;9.522;2024-01-07T12:11:27;3.10;99.90
10441;DHT22;5268;49.346;9.522;2024-01-07T12:16:29;3.10;99.90
10441;DHT22;5268;49.346;9.522;2024-01-07T12:21:31;2.90;99.90
10441;DHT22;5268;49.346;9.522;2024-01-07T12:26:35;2.90;99.90
10441;DHT22;5268;49.346;9.522;2024-01-07T12:31:38;3.00;99.90
10441;DHT22;5268;49.346;9.522;2024-01-07T12:36:40;3.10;99.90
10441;DHT22;5268;49.346;9.522;2024-01-07T12:41:44;3.10;99.90
10441;DHT22;5268;49.346;9.522;2024-01-07T12:46:47;2.90;99.90
10441;DHT22;5268;49.346;9.522;2024-01-07T12:51:52;3.00;99.90
10441;DHT22;5268;49.346;9.522;2024-01-07T12:56:56;2.90;99.90
10441;DHT22;5268;49.346;9.522;2024-01-07T13:01:58;2.80;99.90
10441;DHT22;5268;49.346;9.522;2024-01-07T13:07:00;2.60;99.90
10441;DHT22;5268;49.346;9.522;2024-01-07T13:12:04;2.70;99.90
10441;DHT22;5268;49.346;9.522;2024-01-07T13:17:06;2.60;99.90
10441;DHT22;5268;49.346;9.522;2024-01-07T13:22:08;2.60;99.90
10441;DHT22;5268;49.346;9.522;2024-01-07T13:27:12;2.60;99.90
10441;DHT22;5268;49.346;9.522;2024-01-07T13:32:15;2.60;99.90
10441;DHT22;5268;49.346;9.522;2024-01-07T13:37:18;2.50;99.90
10441;DHT22;5268;49.346;9.522;2024-01-07T13:42:22;2.50;99.90
10441;DHT22;5268;49.346;9.522;2024-01-07T13:47:24;2.40;99.90
10441;DHT22;5268;49.346;9.522;2024-01-07T13:52:27;2.40;99.90
10441;DHT22;5268;49.346;9.522;2024-01-07T13:57:32;2.40;99.90
10441;DHT22;5268;49.346;9.522;2024-01-07T14:02:34;2.40;99.90
10441;DHT22;5268;49.346;9.522;2024-01-07T14:07:37;2.40;99.90
10441;DHT22;5268;49.346;9.522;2024-01-07T14:12:41;2.30;99.90
10441;DHT22;5268;49.346;9.522;2024-01-07T14:17:43;2.10;99.90
10441;DHT22;5268;49.346;9.522;2024-01-07T14:22:45;2.10;99.90
10441;DHT22;5268;49.346;9.522;2024-01-07T14:27:48;2.00;99.90
10441;DHT22;5268;49.346;9.522;2024-01-07T14:32:50;2.00;99.90
10441;DHT22;5268;49.346;9.522;2024-01-07T14:37:52;2.00;99.90
10441;DHT22;5268;49.346;9.522;2024-01-07T14:42:56;2.00;99.90
10441;DHT22;5268;49.346;9.522;2024-01-07T14:47:58;2.00;99.90
10441;DHT22;5268;49.346;9.522;2024-01-07T14:53:01;1.90;99.90
10441;DHT22;5268;49.346;9.522;2024-01-07T14:58:04;2.00;99.90
10441;DHT22;5268;49.346;9.522;2024-01-07T15:03:06;1.90;99.90
10441;DHT22;5268;49.346;9.522;2024-01-07T15:08:08;1.80;99.90
10441;DHT22;5268;49.346;9.522;2024-01-07T15:13:14;1.80;99.90
10441;DHT22;5268;49.346;9.522;2024-01-07T15:18:16;1.80;99.90
10441;DHT22;5268;49.346;9.522;2024-01-07T15:23:19;1.70;99.90
10441;DHT22;5268;49.346;9.522;2024-01-07T15:28:22;1.60;99.90
10441;DHT22;5268;49.346;9.522;2024-01-07T15:33:24;1.60;99.90
10441;DHT22;5268;49.346;9.522;2024-01-07T15:38:26;1.50;99.90
10441;DHT22;5268;49.346;9.522;2024-01-07T15:43:30;1.50;99.90
10441;DHT22;5268;49.346;9.522;2024-01-07T15:48:33;1.50;99.90
10441;DHT22;5268;49.346;9.522;2024-01-07T15:53:35;1.40;99.90
10441;DHT22;5268;49.346;9.522;2024-01-07T15:58:38;1.50;99.90
10441;DHT22;5268;49.346;9.522;2024-01-07T16:03:40;1.40;99.90
10441;DHT22;5268;49.346;9.522;2024-01-07T16:08:42;1.20;99.90
10441;DHT22;5268;49.346;9.522;2024-01-07T16:13:45;1.20;99.90
10441;DHT22;5268;49.346;9.522;2024-01-07T16:18:47;1.10;99.90
10441;DHT22;5268;49.346;9.522;2024-01-07T16:23:50;1.20;99.90
10441;DHT22;5268;49.346;9.522;2024-01-07T16:28:54;1.10;99.90
10441;DHT22;5268;49.346;9.522;2024-01-07T16:33:56;1.10;99.90
10441;DHT22;5268;49.346;9.522;2024-01-07T16:38:58;1.00;99.90
10441;DHT22;5268;49.346;9.522;2024-01-07T16:44:04;1.00;99.90
10441;DHT22;5268;49.346;9.522;2024-01-07T16:49:09;1.10;99.90
10441;DHT22;5268;49.346;9.522;2024-01-07T16:54:11;1.00;99.90
10441;DHT22;5268;49.346;9.522;2024-01-07T16:59:14;1.00;99.90
10441;DHT22;5268;49.346;9.522;2024-01-07T17:04:17;0.90;99.90
10441;DHT22;5268;49.346;9.522;2024-01-07T17:09:21;0.90;99.90
10441;DHT22;5268;49.346;9.522;2024-01-07T17:14:25;0.80;99.90
10441;DHT22;5268;49.346;9.522;2024-01-07T17:19:28;0.80;99.90
10441;DHT22;5268;49.346;9.522;2024-01-07T17:24:30;0.70;99.90
10441;DHT22;5268;49.346;9.522;2024-01-07T17:29:34;0.70;99.90
10441;DHT22;5268;49.346;9.522;2024-01-07T17:34:36;0.60;99.90
10441;DHT22;5268;49.346;9.522;2024-01-07T17:39:39;0.50;99.90
10441;DHT22;5268;49.346;9.522;2024-01-07T17:44:42;0.50;99.90
10441;DHT22;5268;49.346;9.522;2024-01-07T17:49:44;0.50;99.90
10441;DHT22;5268;49.346;9.522;2024-01-07T17:54:46;0.40;99.90
10441;DHT22;5268;49.346;9.522;2024-01-07T17:59:50;0.40;99.90
10441;DHT22;5268;49.346;9.522;2024-01-07T18:04:52;0.40;99.90
10441;DHT22;5268;49.346;9.522;2024-01-07T18:09:54;0.30;99.90
10441;DHT22;5268;49.346;9.522;2024-01-07T18:14:58;0.20;99.90
10441;DHT22;5268;49.346;9.522;2024-01-07T18:20:00;0.20;99.90
10441;DHT22;5268;49.346;9.522;2024-01-07T18:25:02;0.20;99.90
10441;DHT22;5268;49.346;9.522;2024-01-07T18:30:09;0.10;99.90
10441;DHT22;5268;49.346;9.522;2024-01-07T18:35:11;0.00;99.90
10441;DHT22;5268;49.346;9.522;2024-01-07T18:40:14;0.00;99.90
10441;DHT22;5268;49.346;9.522;2024-01-07T18:45:17;0.00;99.90
10441;DHT22;5268;49.346;9.522;2024-01-07T18:50:19;0.00;99.90
10441;DHT22;5268;49.346;9.522;2024-01-07T18:55:21;0.00;99.90
10441;DHT22;5268;49.346;9.522;2024-01-07T19:00:25;-0.30;99.90
10441;DHT22;5268;49.346;9.522;2024-01-07T19:05:28;-0.20;99.90
10441;DHT22;5268;49.346;9.522;2024-01-07T19:10:30;-0.20;99.90
10441;DHT22;5268;49.346;9.522;2024-01-07T19:15:34;-0.20;99.90
10441;DHT22;5268;49.346;9.522;2024-01-07T19:20:37;-0.20;99.90
10441;DHT22;5268;49.346;9.522;2024-01-07T19:25:38;-0.20;99.90
10441;DHT22;5268;49.346;9.522;2024-01-07T19:30:42;-0.30;99.90
10441;DHT22;5268;49.346;9.522;2024-01-07T19:35:45;-0.30;99.90
10441;DHT22;5268;49.346;9.522;2024-01-07T19:40:47;-0.30;99.90
10441;DHT22;5268;49.346;9.522;2024-01-07T19:45:51;-0.30;99.90
10441;DHT22;5268;49.346;9.522;2024-01-07T19:50:53;-0.30;99.90
10441;DHT22;5268;49.346;9.522;2024-01-07T19:55:55;-0.30;99.90
10441;DHT22;5268;49.346;9.522;2024-01-07T20:00:59;-0.30;99.90
10441;DHT22;5268;49.346;9.522;2024-01-07T20:06:01;-0.30;99.90
10441;DHT22;5268;49.346;9.522;2024-01-07T20:11:04;-0.30;99.90
10441;DHT22;5268;49.346;9.522;2024-01-07T20:16:08;-0.30;99.90
10441;DHT22;5268;49.346;9.522;2024-01-07T20:21:19;-0.30;99.90
10441;DHT22;5268;49.346;9.522;2024-01-07T20:26:21;-0.30;99.90
10441;DHT22;5268;49.346;9.522;2024-01-07T20:31:25;-0.30;99.90
10441;DHT22;5268;49.346;9.522;2024-01-07T20:36:29;-0.30;99.90
10441;DHT22;5268;49.346;9.522;2024-01-07T20:41:31;-0.40;99.90
10441;DHT22;5268;49.346;9.522;2024-01-07T20:46:36;-0.30;99.90
10441;DHT22;5268;49.346;9.522;2024-01-07T20:51:39;-0.40;99.90
10441;DHT22;5268;49.346;9.522;2024-01-07T20:56:41;-0.50;99.90
10441;DHT22;5268;49.346;9.522;2024-01-07T21:01:45;-0.50;99.90
10441;DHT22;5268;49.346;9.522;2024-01-07T21:06:47;-0.40;99.90
10441;DHT22;5268;49.346;9.522;2024-01-07T21:11:51;-0.40;99.90
10441;DHT22;5268;49.346;9.522;2024-01-07T21:16:55;-0.50;99.90
10441;DHT22;5268;49.346;9.522;2024-01-07T21:21:57;-0.40;99.90
10441;DHT22;5268;49.346;9.522;2024-01-07T21:26:59;-0.40;99.90
10441;DHT22;5268;49.346;9.522;2024-01-07T21:32:03;-0.50;99.90
10441;DHT22;5268;49.346;9.522;2024-01-07T21:37:05;-0.50;99.90
10441;DHT22;5268;49.346;9.522;2024-01-07T21:42:07;-0.50;99.90
10441;DHT22;5268;49.346;9.522;2024-01-07T21:47:10;-0.40;99.90
10441;DHT22;5268;49.346;9.522;2024-01-07T21:52:12;-0.40;99.90
10441;DHT22;5268;49.346;9.522;2024-01-07T21:57:14;-0.40;99.90
10441;DHT22;5268;49.346;9.522;2024-01-07T22:02:17;-0.40;99.90
10441;DHT22;5268;49.346;9.522;2024-01-07T22:07:19;-0.40;99.90
10441;DHT22;5268;49.346;9.522;2024-01-07T22:12:21;-0.40;99.90
10441;DHT22;5268;49.346;9.522;2024-01-07T22:17:24;-0.30;99.90
10441;DHT22;5268;49.346;9.522;2024-01-07T22:22:27;-0.30;99.90
10441;DHT22;5268;49.346;9.522;2024-01-07T22:27:29;-0.30;99.90
10441;DHT22;5268;49.346;9.522;2024-01-07T22:32:35;-0.20;99.90
10441;DHT22;5268;49.346;9.522;2024-01-07T22:37:37;-0.40;99.90
10441;DHT22;5268;49.346;9.522;2024-01-07T22:42:39;-0.40;99.90
10441;DHT22;5268;49.346;9.522;2024-01-07T22:47:42;-0.40;99.90
10441;DHT22;5268;49.346;9.522;2024-01-07T22:52:45;-0.40;99.90
